createdAt,value
2022-12-25T00:02:26.649Z,6.34
2022-12-25T00:04:54.812Z,6.36
2022-12-25T00:07:23.034Z,6.34
2022-12-25T00:09:51.008Z,6.34
2022-12-25T00:12:21.125Z,6.35
2022-12-25T00:14:49.116Z,6.36
2022-12-25T00:17:17.246Z,6.38
2022-12-25T00:19:45.329Z,6.37
2022-12-25T00:22:13.498Z,6.29
2022-12-25T00:24:41.523Z,6.24
2022-12-25T00:27:09.609Z,6.17
2022-12-25T00:29:37.705Z,6.11
2022-12-25T00:32:05.710Z,6.09
2022-12-25T00:34:33.904Z,6.07
2022-12-25T00:37:01.904Z,6.09
2022-12-25T00:39:29.910Z,6.09
2022-12-25T00:42:16.832Z,6.09
2022-12-25T00:44:46.408Z,6.03
2022-12-25T00:47:15.771Z,6.03
2022-12-25T00:49:44.067Z,5.97
2022-12-25T00:52:12.173Z,6.01
2022-12-25T00:54:40.205Z,6.03
2022-12-25T00:57:08.246Z,6.05
2022-12-25T00:59:36.333Z,6.07
2022-12-25T01:02:23.322Z,6.09
2022-12-25T01:04:54.777Z,6.10
2022-12-25T01:07:25.336Z,6.01
2022-12-25T01:10:12.475Z,6.02
2022-12-25T01:12:42.561Z,6.00
2022-12-25T01:15:12.317Z,5.99
2022-12-25T01:17:41.547Z,5.96
2022-12-25T01:20:11.532Z,5.91
2022-12-25T01:22:39.898Z,5.83
2022-12-25T01:25:10.780Z,5.77
2022-12-25T01:27:41.153Z,5.69
2022-12-25T01:30:10.103Z,5.69
2022-12-25T01:32:38.493Z,5.66
2022-12-25T01:35:06.963Z,5.61
2022-12-25T01:37:35.179Z,5.61
2022-12-25T01:40:03.984Z,5.59
2022-12-25T01:42:32.135Z,5.59
2022-12-25T01:45:36.993Z,5.60
2022-12-25T01:48:12.039Z,5.62
2022-12-25T01:50:44.589Z,5.64
2022-12-25T01:53:13.427Z,5.67
2022-12-25T01:55:45.506Z,5.66
2022-12-25T01:58:14.398Z,5.62
2022-12-25T02:00:42.833Z,5.60
2022-12-25T02:03:11.076Z,5.57
2022-12-25T02:05:39.965Z,5.59
2022-12-25T02:08:09.280Z,5.61
2022-12-25T02:10:39.213Z,5.59
2022-12-25T02:13:08.436Z,5.57
2022-12-25T02:15:48.341Z,5.54
2022-12-25T02:18:29.307Z,5.48
2022-12-25T02:21:30.027Z,5.46
2022-12-25T02:24:20.618Z,5.46
2022-12-25T02:27:14.599Z,5.42
2022-12-25T02:30:07.509Z,5.32
2022-12-25T02:32:47.251Z,5.25
2022-12-25T02:35:24.216Z,5.23
2022-12-25T02:38:02.330Z,5.17
2022-12-25T02:40:56.113Z,5.09
2022-12-25T02:43:57.362Z,5.03
2022-12-25T02:46:45.981Z,5.02
2022-12-25T02:49:38.219Z,5.01
2022-12-25T02:52:31.488Z,4.97
2022-12-25T02:55:22.897Z,4.93
2022-12-25T02:58:13.285Z,4.91
2022-12-25T03:01:11.217Z,4.87
2022-12-25T03:04:00.321Z,4.86
2022-12-25T03:06:45.849Z,4.86
2022-12-25T03:09:41.638Z,4.85
2022-12-25T03:12:27.699Z,4.91
2022-12-25T03:15:14.644Z,4.93
2022-12-25T03:17:43.341Z,4.89
2022-12-25T03:20:30.158Z,4.90
2022-12-25T03:23:17.343Z,4.91
2022-12-25T03:26:03.966Z,4.95
2022-12-25T03:28:32.056Z,5.02
2022-12-25T03:31:17.397Z,5.08
2022-12-25T03:34:19.779Z,5.17
2022-12-25T03:37:43.528Z,5.24
2022-12-25T03:40:51.904Z,5.23
2022-12-25T03:43:44.678Z,5.25
2022-12-25T03:46:35.065Z,5.22
2022-12-25T03:49:33.684Z,5.23
2022-12-25T03:52:21.624Z,5.19
2022-12-25T03:55:13.108Z,5.12
2022-12-25T03:57:59.617Z,5.07
2022-12-25T04:00:46.286Z,5.06
2022-12-25T04:03:33.040Z,5.13
2022-12-25T04:06:20.292Z,5.11
2022-12-25T04:09:06.733Z,5.06
2022-12-25T04:12:00.477Z,5.04
2022-12-25T04:14:49.229Z,5.10
2022-12-25T04:17:36.100Z,4.99
2022-12-25T04:20:23.254Z,4.92
2022-12-25T04:23:09.837Z,4.97
2022-12-25T04:25:56.331Z,4.97
2022-12-25T04:28:56.750Z,4.96
2022-12-25T04:31:43.356Z,4.96
2022-12-25T04:34:37.958Z,4.98
2022-12-25T04:37:05.963Z,4.96
2022-12-25T04:39:34.260Z,4.95
2022-12-25T04:42:02.475Z,4.98
2022-12-25T04:44:30.461Z,5.00
2022-12-25T04:46:58.497Z,5.00
2022-12-25T04:49:26.756Z,4.93
2022-12-25T04:51:54.843Z,4.94
2022-12-25T04:54:23.345Z,4.94
2022-12-25T04:56:51.362Z,4.96
2022-12-25T04:59:19.398Z,4.98
2022-12-25T05:01:47.562Z,4.98
2022-12-25T05:04:15.853Z,4.99
2022-12-25T05:06:43.971Z,4.95
2022-12-25T05:09:12.055Z,4.92
2022-12-25T05:11:40.055Z,4.93
2022-12-25T05:14:08.079Z,4.90
2022-12-25T05:16:36.379Z,4.89
2022-12-25T05:19:04.641Z,4.86
2022-12-25T05:21:32.684Z,4.88
2022-12-25T05:24:00.762Z,4.79
2022-12-25T05:26:29.058Z,4.74
2022-12-25T05:28:57.195Z,4.65
2022-12-25T05:31:25.287Z,4.60
2022-12-25T05:33:53.391Z,4.60
2022-12-25T05:36:21.391Z,4.66
2022-12-25T05:38:50.422Z,4.67
2022-12-25T05:41:18.653Z,4.61
2022-12-25T05:43:46.841Z,4.61
2022-12-25T05:46:15.084Z,4.61
2022-12-25T05:48:43.547Z,4.61
2022-12-25T05:51:14.237Z,4.61
2022-12-25T05:53:43.533Z,4.62
2022-12-25T05:56:12.336Z,4.62
2022-12-25T05:58:40.862Z,4.64
2022-12-25T06:01:19.680Z,4.65
2022-12-25T06:03:47.975Z,4.65
2022-12-25T06:06:16.249Z,4.62
2022-12-25T06:08:44.434Z,4.58
2022-12-25T06:11:14.487Z,4.51
2022-12-25T06:13:43.284Z,4.47
2022-12-25T06:16:12.054Z,4.49
2022-12-25T06:18:44.852Z,4.51
2022-12-25T06:21:15.101Z,4.51
2022-12-25T06:23:43.546Z,4.51
2022-12-25T06:26:14.829Z,4.49
2022-12-25T06:28:43.684Z,4.34
2022-12-25T06:31:13.517Z,4.30
2022-12-25T06:33:42.792Z,4.22
2022-12-25T06:36:19.887Z,4.12
2022-12-25T06:38:48.214Z,4.09
2022-12-25T06:41:21.962Z,4.02
2022-12-25T06:43:56.124Z,3.99
2022-12-25T06:46:26.487Z,3.96
2022-12-25T06:48:55.675Z,3.91
2022-12-25T06:51:26.581Z,3.85
2022-12-25T06:53:55.902Z,3.75
2022-12-25T06:56:27.444Z,3.69
2022-12-25T06:58:58.754Z,3.63
2022-12-25T07:01:36.030Z,3.58
2022-12-25T07:04:07.891Z,3.52
2022-12-25T07:06:35.863Z,3.53
2022-12-25T07:09:03.954Z,3.61
2022-12-25T07:11:32.122Z,3.69
2022-12-25T07:14:00.161Z,3.75
2022-12-25T07:16:28.319Z,3.78
2022-12-25T07:18:56.339Z,3.85
2022-12-25T07:21:24.430Z,3.93
2022-12-25T07:23:52.682Z,4.00
2022-12-25T07:26:21.052Z,4.07
2022-12-25T07:28:49.071Z,4.24
2022-12-25T07:31:18.189Z,4.38
2022-12-25T07:33:46.334Z,4.62
2022-12-25T07:36:15.403Z,4.85
2022-12-25T07:38:44.216Z,5.03
2022-12-25T07:41:13.248Z,5.13
2022-12-25T07:43:41.848Z,5.16
2022-12-25T07:46:11.397Z,5.17
2022-12-25T07:48:39.721Z,5.05
2022-12-25T07:51:12.102Z,5.10
2022-12-25T07:53:41.018Z,5.19
2022-12-25T07:56:12.151Z,5.18
2022-12-25T07:58:41.193Z,5.18
2022-12-25T08:01:20.304Z,5.18
2022-12-25T08:03:54.116Z,5.27
2022-12-25T08:06:26.885Z,5.27
2022-12-25T08:09:02.479Z,5.28
2022-12-25T08:11:30.566Z,5.46
2022-12-25T08:13:58.837Z,5.52
2022-12-25T08:16:26.936Z,5.62
2022-12-25T08:18:55.081Z,5.70
2022-12-25T08:21:23.091Z,5.81
2022-12-25T08:23:51.194Z,5.83
2022-12-25T08:26:21.489Z,5.89
2022-12-25T08:28:50.477Z,5.95
2022-12-25T08:31:28.064Z,6.04
2022-12-25T08:33:58.103Z,5.99
2022-12-25T08:36:26.700Z,6.01
2022-12-25T08:39:02.169Z,6.03
2022-12-25T08:41:32.165Z,6.10
2022-12-25T08:44:00.327Z,6.22
2022-12-25T08:46:28.409Z,6.16
2022-12-25T08:48:56.972Z,6.16
2022-12-25T08:51:26.294Z,6.22
2022-12-25T08:53:59.565Z,6.33
2022-12-25T08:56:29.303Z,6.35
2022-12-25T08:58:57.656Z,6.43
2022-12-25T09:01:25.877Z,6.54
2022-12-25T09:03:53.931Z,6.71
2022-12-25T09:06:21.948Z,6.91
2022-12-25T09:08:50.186Z,7.08
2022-12-25T09:11:19.959Z,7.20
2022-12-25T09:13:48.928Z,7.28
2022-12-25T09:16:18.256Z,7.36
2022-12-25T09:18:46.337Z,7.45
2022-12-25T09:21:16.082Z,7.52
2022-12-25T09:23:44.744Z,7.60
2022-12-25T09:26:16.136Z,7.73
2022-12-25T09:28:50.760Z,7.88
2022-12-25T09:31:22.289Z,7.95
2022-12-25T09:33:51.804Z,8.06
2022-12-25T09:36:23.449Z,8.20
2022-12-25T09:38:52.809Z,8.23
2022-12-25T09:41:23.857Z,8.26
2022-12-25T09:43:58.586Z,8.34
2022-12-25T09:46:36.922Z,8.36
2022-12-25T09:49:27.279Z,8.37
2022-12-25T09:52:02.798Z,8.47
2022-12-25T09:54:37.122Z,8.55
2022-12-25T09:57:05.973Z,8.48
2022-12-25T09:59:34.007Z,8.49
2022-12-25T10:02:37.122Z,8.44
2022-12-25T10:05:27.534Z,8.55
2022-12-25T10:08:30.448Z,8.54
2022-12-25T10:11:25.843Z,8.64
2022-12-25T10:14:16.550Z,8.68
2022-12-25T10:17:00.001Z,8.67
2022-12-25T10:19:44.068Z,8.69
2022-12-25T10:22:30.353Z,8.71
2022-12-25T10:25:01.064Z,8.83
2022-12-25T10:27:38.130Z,9.00
2022-12-25T10:30:17.157Z,9.19
2022-12-25T10:32:47.047Z,9.41
2022-12-25T10:35:21.213Z,9.48
2022-12-25T10:38:01.108Z,9.45
2022-12-25T10:40:44.338Z,9.41
2022-12-25T10:43:18.343Z,9.62
2022-12-25T10:45:48.994Z,9.76
2022-12-25T10:48:24.197Z,9.90
2022-12-25T10:50:52.702Z,10.00
2022-12-25T10:53:24.444Z,10.03
2022-12-25T10:56:01.545Z,10.05
2022-12-25T10:58:31.747Z,10.01
2022-12-25T11:01:07.184Z,9.89
2022-12-25T11:03:39.241Z,9.81
2022-12-25T11:06:21.336Z,9.66
2022-12-25T11:08:59.189Z,9.47
2022-12-25T11:11:29.191Z,9.33
2022-12-25T11:14:02.218Z,9.18
2022-12-25T11:16:32.900Z,9.09
2022-12-25T11:19:01.160Z,9.02
2022-12-25T11:21:35.133Z,9.02
2022-12-25T11:24:05.983Z,9.08
2022-12-25T11:26:49.220Z,9.13
2022-12-25T11:29:43.378Z,9.10
2022-12-25T11:32:19.335Z,8.99
2022-12-25T11:34:49.171Z,8.79
2022-12-25T11:37:24.020Z,8.55
2022-12-25T11:39:52.166Z,8.57
2022-12-25T11:42:29.878Z,8.46
2022-12-25T11:45:24.293Z,8.45
2022-12-25T11:48:01.138Z,8.47
2022-12-25T11:50:30.962Z,8.47
2022-12-25T11:53:03.402Z,8.45
2022-12-25T11:55:46.407Z,8.46
2022-12-25T11:58:20.375Z,8.51
2022-12-25T12:00:51.964Z,8.53
2022-12-25T12:03:31.730Z,8.57
2022-12-25T12:06:15.219Z,8.57
2022-12-25T12:08:44.529Z,8.54
2022-12-25T12:11:25.493Z,8.49
2022-12-25T12:13:59.209Z,8.48
2022-12-25T12:16:27.703Z,8.44
2022-12-25T12:18:55.843Z,8.41
2022-12-25T12:21:30.258Z,8.38
2022-12-25T12:24:17.130Z,8.35
2022-12-25T12:26:47.277Z,8.31
2022-12-25T12:29:43.754Z,8.33
2022-12-25T12:32:20.859Z,8.38
2022-12-25T12:34:52.044Z,8.48
2022-12-25T12:37:31.742Z,8.69
2022-12-25T12:40:00.188Z,8.91
2022-12-25T12:42:31.895Z,9.07
2022-12-25T12:45:10.299Z,9.22
2022-12-25T12:47:43.226Z,9.34
2022-12-25T12:50:40.088Z,9.38
2022-12-25T12:53:22.412Z,9.42
2022-12-25T12:55:52.061Z,9.45
2022-12-25T12:58:36.127Z,9.44
2022-12-25T13:01:32.153Z,9.38
2022-12-25T13:04:09.509Z,9.29
2022-12-25T13:06:46.309Z,9.22
2022-12-25T13:09:28.555Z,9.09
2022-12-25T13:11:57.045Z,8.97
2022-12-25T13:14:25.647Z,8.86
2022-12-25T13:16:54.912Z,8.78
2022-12-25T13:19:26.973Z,8.72
2022-12-25T13:22:01.045Z,8.66
2022-12-25T13:24:32.194Z,8.61
2022-12-25T13:27:01.024Z,8.59
2022-12-25T13:29:32.720Z,8.57
2022-12-25T13:32:03.856Z,8.55
2022-12-25T13:34:36.563Z,8.52
2022-12-25T13:37:16.682Z,8.47
2022-12-25T13:39:50.298Z,8.43
2022-12-25T13:42:22.820Z,8.40
2022-12-25T13:44:53.817Z,8.34
2022-12-25T13:47:35.902Z,8.30
2022-12-25T13:50:20.587Z,8.25
2022-12-25T13:52:49.174Z,8.17
2022-12-25T13:55:21.144Z,8.09
2022-12-25T13:58:04.642Z,7.99
2022-12-25T14:00:32.585Z,7.90
2022-12-25T14:03:01.080Z,7.81
2022-12-25T14:05:29.490Z,7.72
2022-12-25T14:08:00.832Z,7.62
2022-12-25T14:10:38.667Z,7.53
2022-12-25T14:13:12.934Z,7.45
2022-12-25T14:15:42.159Z,7.33
2022-12-25T14:18:21.778Z,7.22
2022-12-25T14:21:21.312Z,7.12
2022-12-25T14:23:50.460Z,6.98
2022-12-25T14:26:28.776Z,6.88
2022-12-25T14:29:05.848Z,6.78
2022-12-25T14:31:35.509Z,6.68
2022-12-25T14:34:05.909Z,6.59
2022-12-25T14:36:34.603Z,6.47
2022-12-25T14:39:06.292Z,6.35
2022-12-25T14:41:42.130Z,6.24
2022-12-25T14:44:31.725Z,6.14
2022-12-25T14:47:05.147Z,6.04
2022-12-25T14:49:33.253Z,5.89
2022-12-25T14:52:24.911Z,5.77
2022-12-25T14:54:58.342Z,5.63
2022-12-25T14:57:34.026Z,5.54
2022-12-25T15:00:08.070Z,5.45
2022-12-25T15:02:46.015Z,5.39
2022-12-25T15:05:25.898Z,5.29
2022-12-25T15:08:10.347Z,5.21
2022-12-25T15:13:30.067Z,5.05
2022-12-25T15:16:13.658Z,4.96
2022-12-25T15:18:46.158Z,4.88
2022-12-25T15:21:25.836Z,4.80
2022-12-25T15:23:55.973Z,4.73
2022-12-25T15:26:25.580Z,4.67
2022-12-25T15:28:53.601Z,4.62
2022-12-25T15:31:23.494Z,4.55
2022-12-25T15:33:52.972Z,4.50
2022-12-25T15:36:21.884Z,4.43
2022-12-25T15:38:50.337Z,4.37
2022-12-25T15:41:53.030Z,4.32
2022-12-25T15:44:21.331Z,4.26
2022-12-25T15:46:50.009Z,4.18
2022-12-25T15:49:18.762Z,4.09
2022-12-25T15:51:47.209Z,4.04
2022-12-25T15:54:15.547Z,3.99
2022-12-25T15:56:45.310Z,3.92
2022-12-25T15:59:15.840Z,3.87
2022-12-25T16:01:48.491Z,3.78
2022-12-25T16:04:16.614Z,3.67
2022-12-25T16:06:44.903Z,3.54
2022-12-25T16:09:14.217Z,3.46
2022-12-25T16:11:43.493Z,3.39
2022-12-25T16:14:12.553Z,3.27
2022-12-25T16:16:41.901Z,3.18
2022-12-25T16:19:10.042Z,3.08
2022-12-25T16:21:42.416Z,3.02
2022-12-25T16:24:10.972Z,2.98
2022-12-25T16:26:39.040Z,2.90
2022-12-25T16:29:07.860Z,2.81
2022-12-25T16:31:37.787Z,2.77
2022-12-25T16:34:09.059Z,2.71
2022-12-25T16:36:39.266Z,2.63
2022-12-25T16:39:08.542Z,2.59
2022-12-25T16:41:36.616Z,2.55
2022-12-25T16:44:10.222Z,2.51
2022-12-25T16:46:40.282Z,2.47
2022-12-25T16:49:08.943Z,2.43
2022-12-25T16:51:37.366Z,2.39
2022-12-25T16:54:05.740Z,2.34
2022-12-25T16:56:36.740Z,2.30
2022-12-25T16:59:05.136Z,2.25
2022-12-25T17:01:33.247Z,2.22
2022-12-25T17:04:01.648Z,2.17
2022-12-25T17:06:29.897Z,2.11
2022-12-25T17:08:59.803Z,2.01
2022-12-25T17:11:30.820Z,1.95
2022-12-25T17:14:02.532Z,1.91
2022-12-25T17:16:34.641Z,1.86
2022-12-25T17:19:08.014Z,1.80
2022-12-25T17:21:38.386Z,1.78
2022-12-25T17:24:07.287Z,1.76
2022-12-25T17:26:35.546Z,1.69
2022-12-25T17:29:03.819Z,1.63
2022-12-25T17:31:32.170Z,1.56
2022-12-25T17:34:01.806Z,1.54
2022-12-25T17:36:30.545Z,1.50
2022-12-25T17:39:00.949Z,1.46
2022-12-25T17:41:29.117Z,1.40
2022-12-25T17:43:57.732Z,1.37
2022-12-25T17:46:27.439Z,1.37
2022-12-25T17:48:56.347Z,1.36
2022-12-25T17:51:25.642Z,1.38
2022-12-25T17:53:54.955Z,1.37
2022-12-25T17:56:23.657Z,1.39
2022-12-25T17:58:52.836Z,1.38
2022-12-25T18:01:21.731Z,1.35
2022-12-25T18:03:50.441Z,1.29
2022-12-25T18:06:23.730Z,1.23
2022-12-25T18:08:53.825Z,1.13
2022-12-25T18:11:23.546Z,1.07
2022-12-25T18:13:52.374Z,1.07
2022-12-25T18:16:22.426Z,1.06
2022-12-25T18:18:52.486Z,1.03
2022-12-25T18:21:21.955Z,1.00
2022-12-25T18:23:50.632Z,0.96
2022-12-25T18:26:19.907Z,0.95
2022-12-25T18:28:48.874Z,0.94
2022-12-25T18:31:18.502Z,0.92
2022-12-25T18:33:46.503Z,0.87
2022-12-25T18:36:15.675Z,0.83
2022-12-25T18:38:43.617Z,0.78
2022-12-25T18:41:11.890Z,0.75
2022-12-25T18:43:53.583Z,0.72
2022-12-25T18:46:25.526Z,0.69
2022-12-25T18:48:55.775Z,0.68
2022-12-25T18:51:24.248Z,0.69
2022-12-25T18:53:52.144Z,0.66
2022-12-25T18:56:20.992Z,0.64
2022-12-25T18:58:48.964Z,0.60
2022-12-25T19:01:18.751Z,0.57
2022-12-25T19:03:49.441Z,0.57
2022-12-25T19:06:18.220Z,0.54
2022-12-25T19:08:46.603Z,0.49
2022-12-25T19:11:14.945Z,0.46
2022-12-25T19:13:43.305Z,0.39
2022-12-25T19:16:11.892Z,0.34
2022-12-25T19:18:40.244Z,0.33
2022-12-25T19:21:09.429Z,0.29
2022-12-25T19:23:38.353Z,0.25
2022-12-25T19:26:07.431Z,0.21
2022-12-25T19:28:36.048Z,0.20
2022-12-25T19:31:07.463Z,0.16
2022-12-25T19:33:36.514Z,0.12
2022-12-25T19:36:06.195Z,0.09
2022-12-25T19:38:34.352Z,0.06
2022-12-25T19:41:09.834Z,0.05
2022-12-25T19:43:39.328Z,0.02
2022-12-25T19:46:08.941Z,-0.00
2022-12-25T19:48:37.099Z,0.00
2022-12-25T19:51:13.304Z,-0.00
2022-12-25T19:53:41.268Z,0.01
2022-12-25T19:56:09.286Z,0.03
2022-12-25T19:58:37.248Z,0.01
2022-12-25T20:01:08.443Z,0.04
2022-12-25T20:03:43.675Z,0.06
2022-12-25T20:06:20.066Z,0.08
2022-12-25T20:08:48.787Z,0.10
2022-12-25T20:11:17.430Z,0.12
2022-12-25T20:13:45.853Z,0.13
2022-12-25T20:16:13.839Z,0.13
2022-12-25T20:18:42.192Z,0.12
2022-12-25T20:21:14.838Z,0.10
2022-12-25T20:23:43.470Z,0.10
2022-12-25T20:26:12.631Z,0.02
2022-12-25T20:28:41.905Z,-0.01
2022-12-25T20:31:12.819Z,0.02
2022-12-25T20:33:41.092Z,0.02
2022-12-25T20:36:09.158Z,-0.02
2022-12-25T20:38:37.135Z,-0.01
2022-12-25T20:43:55.639Z,0.04
2022-12-25T20:46:24.626Z,0.04
2022-12-25T20:48:53.145Z,0.04
2022-12-25T20:51:22.990Z,0.03
2022-12-25T20:53:51.470Z,0.03
2022-12-25T20:56:19.923Z,0.02
2022-12-25T20:58:47.801Z,0.03
2022-12-25T21:01:17.634Z,0.01
2022-12-25T21:03:46.353Z,-0.02
2022-12-25T21:06:14.277Z,-0.03
2022-12-25T21:08:42.514Z,-0.02
2022-12-25T21:11:10.860Z,-0.02
2022-12-25T21:13:42.960Z,-0.01
2022-12-25T21:16:12.226Z,-0.00
2022-12-25T21:18:40.458Z,-0.02
2022-12-25T21:21:09.138Z,-0.06
2022-12-25T21:23:38.275Z,-0.08
2022-12-25T21:26:13.330Z,-0.08
2022-12-25T21:28:41.664Z,-0.08
2022-12-25T21:31:10.080Z,-0.10
2022-12-25T21:33:54.119Z,-0.09
2022-12-25T21:36:24.122Z,-0.10
2022-12-25T21:38:53.912Z,-0.11
2022-12-25T21:41:22.022Z,-0.13
2022-12-25T21:43:50.324Z,-0.14
2022-12-25T21:46:18.714Z,-0.16
2022-12-25T21:48:46.711Z,-0.17
2022-12-25T21:51:35.631Z,-0.20
2022-12-25T21:54:04.401Z,-0.28
2022-12-25T21:56:34.428Z,-0.37
2022-12-25T21:59:06.323Z,-0.42
2022-12-25T22:01:34.615Z,-0.47
2022-12-25T22:04:04.178Z,-0.54
2022-12-25T22:06:50.902Z,-0.57
2022-12-25T22:09:19.190Z,-0.57
2022-12-25T22:12:06.157Z,-0.55
2022-12-25T22:14:57.163Z,-0.51
2022-12-25T22:17:47.329Z,-0.52
2022-12-25T22:20:22.993Z,-0.52
2022-12-25T22:22:51.422Z,-0.53
2022-12-25T22:25:19.505Z,-0.52
2022-12-25T22:27:48.091Z,-0.50
2022-12-25T22:30:20.632Z,-0.46
2022-12-25T22:32:48.896Z,-0.40
2022-12-25T22:35:17.571Z,-0.35
2022-12-25T22:37:46.004Z,-0.29
2022-12-25T22:40:15.399Z,-0.24
2022-12-25T22:42:43.405Z,-0.20
2022-12-25T22:45:12.139Z,-0.19
2022-12-25T22:47:40.145Z,-0.19
2022-12-25T22:50:08.712Z,-0.18
2022-12-25T22:52:36.779Z,-0.16
2022-12-25T22:55:05.284Z,-0.15
2022-12-25T22:57:33.460Z,-0.14
2022-12-25T23:00:01.447Z,-0.15
2022-12-25T23:02:29.929Z,-0.21
2022-12-25T23:04:58.056Z,-0.24
2022-12-25T23:07:25.930Z,-0.25
2022-12-25T23:09:53.806Z,-0.27
2022-12-25T23:12:40.517Z,-0.29
2022-12-25T23:15:08.658Z,-0.35
2022-12-25T23:17:56.271Z,-0.35
2022-12-25T23:20:42.726Z,-0.32
2022-12-25T23:23:33.722Z,-0.31
2022-12-25T23:26:08.259Z,-0.26
2022-12-25T23:28:56.259Z,-0.22
2022-12-25T23:31:42.753Z,-0.19
2022-12-25T23:34:10.904Z,-0.17
2022-12-25T23:36:38.886Z,-0.13
2022-12-25T23:39:10.035Z,-0.09
2022-12-25T23:41:43.174Z,-0.11
2022-12-25T23:44:12.113Z,-0.10
2022-12-25T23:46:41.181Z,-0.11
2022-12-25T23:49:22.387Z,-0.04
2022-12-25T23:51:52.923Z,-0.08
2022-12-25T23:54:23.353Z,-0.07
2022-12-25T23:56:51.614Z,-0.02
2022-12-25T23:59:19.715Z,0.05
